Elizabeth City Cg Air Station Regional Airport
KECG : now visible

Airfield :











YOU CAN JOIN US ON...

 
LOGIN :

Register | Disclaimer

   EN    FR    IT 

 









Legend :    VFR   Marginal VFR   IFR   Intensive IFR   Very Intensive IFR
Visi :
Ceiling :
>= 8 km
>= 3000ft
5 to 8 km
1000 to 3000 ft
1500m to 5 km
500 to 1000 ft
800 to 1500m
200 to 500 ft
< 800m
< 200 ft
Symbols :   Thunderstorms  Fog  Heavy snow  Heavy precipitations  Wind > 20 kt






- Airport Elevation : 12 ft


KECG - Elizabeth City Cg Air Station Regional

CURRENT METAR :
  • 201854Z VRB04KT 10SM FEW021 28/22 A3021 RMK AO2 SLP229 T02780217

EXPIRED METARs :
  • 201754Z 09006KT 10SM CLR 27/22 A3022 RMK AO2 SLP232 60000 T02670217 10278 20189 58008
  • 201724Z 07004KT 10SM SCT021 SCT041 26/21 A3023 RMK AO2 T02560211
  • 201717Z 04006KT 10SM BKN021 BKN041 27/22 A3023 RMK AO2 T02670217
  • 201654Z 00000KT 10SM SCT021 BKN037 BKN050 26/21 A3024 RMK AO2 SLP239 T02610211

TAF KECG
Valid from the 20 at 18:00 until the 21 at 18:00 UTC


201726Z 2018/2118 11004KT P6SM SCT020 BKN040
TEMPO 2018/2019 BKN020
FM210600 VRB03KT 4SM BR SCT030
FM210900 VRB03KT 1SM BR BKN007
FM211400 08004KT 4SM BR BKN015
FM211500 08004KT P6SM BKN040
KZDC FIR / North America



MET'MAP, your aeronautical weather chart ! - Copyright ORBIFLY December 2007 - Disclaimer

ORBIFLY MET'MAP TEAM :

Programming & Development : Alexandra Zaïnal
Concept & original design : Baudouin d'Aumeries
Assistance for programming : Marc-Olivier Méhu
Technical & hardware support : Manuel Goepfert

Contact : metmap@orbifly.com




SOURCES & CREDITS :

   NOAA       Earth
Advisory